createdAt,value
2023-04-18T00:01:21.731Z,6.77
2023-04-18T00:03:51.591Z,7.53
2023-04-18T00:06:22.256Z,6.63
2023-04-18T00:08:50.374Z,6.53
2023-04-18T00:11:18.378Z,7.27
2023-04-18T00:13:47.524Z,7.60
2023-04-18T00:16:17.282Z,6.83
2023-04-18T00:18:45.392Z,7.40
2023-04-18T00:21:13.588Z,6.83
2023-04-18T00:23:41.802Z,7.63
2023-04-18T00:26:10.008Z,7.40
2023-04-18T00:28:38.106Z,6.37
2023-04-18T00:31:06.397Z,8.40
2023-04-18T00:33:36.108Z,6.73
2023-04-18T00:36:04.428Z,7.57
2023-04-18T00:38:32.630Z,6.83
2023-04-18T00:41:00.637Z,6.63
2023-04-18T00:43:28.701Z,7.67
2023-04-18T00:45:58.891Z,6.93
2023-04-18T00:48:27.137Z,7.23
2023-04-18T00:50:56.978Z,6.70
2023-04-18T00:53:25.453Z,6.57
2023-04-18T00:55:54.259Z,6.20
2023-04-18T00:58:22.308Z,7.23
2023-04-18T01:00:50.416Z,7.43
2023-04-18T01:03:20.011Z,6.77
2023-04-18T01:05:48.252Z,6.00
2023-04-18T01:08:18.504Z,6.83
2023-04-18T01:10:46.703Z,7.07
2023-04-18T01:13:15.989Z,6.27
2023-04-18T01:15:44.956Z,6.60
2023-04-18T01:18:16.828Z,7.07
2023-04-18T01:20:47.279Z,6.57
2023-04-18T01:23:15.288Z,6.97
2023-04-18T01:25:45.313Z,7.37
2023-04-18T01:28:15.299Z,6.90
2023-04-18T01:30:43.390Z,6.27
2023-04-18T01:33:11.373Z,8.33
2023-04-18T01:35:39.384Z,6.70
2023-04-18T01:38:07.473Z,7.40
2023-04-18T01:40:35.418Z,8.20
2023-04-18T01:43:04.800Z,7.57
2023-04-18T01:45:32.806Z,7.13
2023-04-18T01:48:00.835Z,6.90
2023-04-18T01:50:28.938Z,6.07
2023-04-18T01:52:56.933Z,6.87
2023-04-18T01:55:24.965Z,6.60
2023-04-18T01:57:53.138Z,6.37
2023-04-18T02:00:23.043Z,6.33
2023-04-18T02:02:51.586Z,7.00
2023-04-18T02:05:19.748Z,7.03
2023-04-18T02:07:49.226Z,7.10
2023-04-18T02:10:17.432Z,6.63
2023-04-18T02:12:45.379Z,6.53
2023-04-18T02:15:13.597Z,6.57
2023-04-18T02:17:42.972Z,5.67
2023-04-18T02:20:11.788Z,6.70
2023-04-18T02:22:39.732Z,7.33
2023-04-18T02:25:08.577Z,7.07
2023-04-18T02:27:36.565Z,6.70
2023-04-18T02:30:04.668Z,7.87
2023-04-18T02:32:32.768Z,7.70
2023-04-18T02:35:02.175Z,6.50
2023-04-18T02:37:30.241Z,7.47
2023-04-18T02:39:58.277Z,7.30
2023-04-18T02:42:26.170Z,6.23
2023-04-18T02:44:54.237Z,7.40
2023-04-18T02:47:22.201Z,7.03
2023-04-18T02:49:50.073Z,7.10
2023-04-18T02:52:19.365Z,6.63
2023-04-18T02:54:47.358Z,7.17
2023-04-18T02:57:15.363Z,7.80
2023-04-18T02:59:43.292Z,6.43
2023-04-18T03:02:11.325Z,7.43
2023-04-18T03:04:39.341Z,7.63
2023-04-18T03:07:07.322Z,6.97
2023-04-18T03:09:36.703Z,7.10
2023-04-18T03:12:04.687Z,6.43
2023-04-18T03:14:32.582Z,7.73
2023-04-18T03:17:00.501Z,7.40
2023-04-18T03:19:28.362Z,6.27
2023-04-18T03:21:56.319Z,7.47
2023-04-18T03:24:24.255Z,6.87
2023-04-18T03:26:54.069Z,6.40
2023-04-18T03:29:22.044Z,7.10
2023-04-18T03:31:49.851Z,6.90
2023-04-18T03:34:17.769Z,7.17
2023-04-18T03:36:47.824Z,6.90
2023-04-18T03:39:16.226Z,6.53
2023-04-18T03:41:44.077Z,5.90
2023-04-18T03:44:13.606Z,8.00
2023-04-18T03:46:42.129Z,6.37
2023-04-18T03:49:10.142Z,6.50
2023-04-18T03:51:44.366Z,7.50
2023-04-18T03:54:12.470Z,5.93
2023-04-18T03:56:40.987Z,7.17
2023-04-18T03:59:08.951Z,7.03
2023-04-18T04:01:38.443Z,7.60
2023-04-18T04:04:06.781Z,6.40
2023-04-18T04:06:34.811Z,7.10
2023-04-18T04:09:02.858Z,7.03
2023-04-18T04:11:30.719Z,5.70
2023-04-18T04:13:58.736Z,6.17
2023-04-18T04:16:26.754Z,6.23
2023-04-18T04:18:56.186Z,6.07
2023-04-18T04:21:24.189Z,6.27
2023-04-18T04:23:52.142Z,5.60
2023-04-18T04:26:20.074Z,5.93
2023-04-18T04:28:48.757Z,6.77
2023-04-18T04:31:16.720Z,7.07
2023-04-18T04:33:45.132Z,5.90
2023-04-18T04:36:18.861Z,5.43
2023-04-18T04:38:47.482Z,5.73
2023-04-18T04:41:15.552Z,7.63
2023-04-18T04:43:43.515Z,6.30
2023-04-18T04:46:13.800Z,6.23
2023-04-18T04:48:42.280Z,5.93
2023-04-18T04:51:10.283Z,7.07
2023-04-18T04:53:39.637Z,7.13
2023-04-18T04:56:07.744Z,6.20
2023-04-18T04:58:35.777Z,6.93
2023-04-18T05:01:03.824Z,6.37
2023-04-18T05:03:32.021Z,6.93
2023-04-18T05:06:00.159Z,6.50
2023-04-18T05:08:28.173Z,6.00
2023-04-18T05:10:57.518Z,5.87
2023-04-18T05:13:25.606Z,6.77
2023-04-18T05:15:53.736Z,7.33
2023-04-18T05:18:21.837Z,6.63
2023-04-18T05:20:49.898Z,6.07
2023-04-18T05:23:17.809Z,7.73
2023-04-18T05:25:45.824Z,6.50
2023-04-18T05:28:15.306Z,5.77
2023-04-18T05:30:43.466Z,6.60
2023-04-18T05:33:11.541Z,6.47
2023-04-18T05:35:39.461Z,6.60
2023-04-18T05:38:07.393Z,7.40
2023-04-18T05:40:35.392Z,5.80
2023-04-18T05:43:03.435Z,5.60
2023-04-18T05:45:32.797Z,5.53
2023-04-18T05:48:00.792Z,5.43
2023-04-18T05:50:28.720Z,5.63
2023-04-18T05:52:59.097Z,5.73
2023-04-18T05:55:26.976Z,5.27
2023-04-18T05:57:55.014Z,5.67
2023-04-18T06:00:23.275Z,6.10
2023-04-18T06:02:52.850Z,5.97
2023-04-18T06:05:21.346Z,5.93
2023-04-18T06:07:49.487Z,5.97
2023-04-18T06:10:17.426Z,6.03
2023-04-18T06:12:45.528Z,5.97
2023-04-18T06:15:13.397Z,5.77
2023-04-18T06:17:41.514Z,5.27
2023-04-18T06:20:11.857Z,4.70
2023-04-18T06:22:39.953Z,6.37
2023-04-18T06:25:10.051Z,6.20
2023-04-18T06:27:38.138Z,6.20
2023-04-18T06:30:07.732Z,5.67
2023-04-18T06:32:35.873Z,5.73
2023-04-18T06:35:03.892Z,5.67
2023-04-18T06:37:33.145Z,5.27
2023-04-18T06:40:00.926Z,5.67
2023-04-18T06:42:28.740Z,5.33
2023-04-18T06:44:56.712Z,5.53
2023-04-18T06:47:24.837Z,6.00
2023-04-18T06:49:52.821Z,5.30
2023-04-18T06:52:20.709Z,5.33
2023-04-18T06:54:50.086Z,5.47
2023-04-18T06:57:18.002Z,5.33
2023-04-18T06:59:46.016Z,5.10
2023-04-18T07:02:14.194Z,4.77
2023-04-18T07:04:42.243Z,5.43
2023-04-18T07:07:10.520Z,5.20
2023-04-18T07:09:38.435Z,5.57
2023-04-18T07:12:08.162Z,5.13
2023-04-18T07:14:36.296Z,4.93
2023-04-18T07:17:05.081Z,5.57
2023-04-18T07:19:33.093Z,4.93
2023-04-18T07:22:02.142Z,4.57
2023-04-18T07:24:30.628Z,5.47
2023-04-18T07:26:58.598Z,4.93
2023-04-18T07:29:28.018Z,5.10
2023-04-18T07:31:56.026Z,5.63
2023-04-18T07:34:23.840Z,5.10
2023-04-18T07:36:51.744Z,5.17
2023-04-18T07:39:19.800Z,4.63
2023-04-18T07:41:47.756Z,5.70
2023-04-18T07:44:16.044Z,5.63
2023-04-18T07:46:46.275Z,5.27
2023-04-18T07:49:14.544Z,5.13
2023-04-18T07:51:42.683Z,5.27
2023-04-18T07:54:11.463Z,5.20
2023-04-18T07:56:39.447Z,6.03
2023-04-18T07:59:07.377Z,4.97
2023-04-18T08:01:35.580Z,4.80
2023-04-18T08:04:05.066Z,5.10
2023-04-18T08:06:34.682Z,5.27
2023-04-18T08:09:05.694Z,4.90
2023-04-18T08:11:35.506Z,6.50
2023-04-18T08:14:03.645Z,5.47
2023-04-18T08:16:31.719Z,5.13
2023-04-18T08:18:59.845Z,5.53
2023-04-18T08:21:29.410Z,4.53
2023-04-18T08:23:57.831Z,5.27
2023-04-18T08:26:25.967Z,5.07
2023-04-18T08:28:53.925Z,5.20
2023-04-18T08:31:22.047Z,5.40
2023-04-18T08:33:50.517Z,5.40
2023-04-18T08:36:18.765Z,5.93
2023-04-18T08:38:48.262Z,5.13
2023-04-18T08:41:21.854Z,5.97
2023-04-18T08:43:50.314Z,5.37
2023-04-18T08:46:19.138Z,5.30
2023-04-18T08:48:51.483Z,4.60
2023-04-18T08:51:19.831Z,5.57
2023-04-18T08:53:50.675Z,5.30
2023-04-18T08:56:22.500Z,5.07
2023-04-18T08:58:50.862Z,5.33
2023-04-18T09:01:18.888Z,4.23
2023-04-18T09:04:02.222Z,5.10
2023-04-18T09:06:30.472Z,5.40
2023-04-18T09:09:00.269Z,5.33
2023-04-18T09:11:29.842Z,5.63
2023-04-18T09:13:58.901Z,6.10
2023-04-18T09:16:27.530Z,5.47
2023-04-18T09:19:13.088Z,5.73
2023-04-18T09:21:42.879Z,5.20
2023-04-18T09:24:21.148Z,5.17
2023-04-18T09:26:50.806Z,4.93
2023-04-18T09:29:22.452Z,5.87
2023-04-18T09:32:01.680Z,5.20
2023-04-18T09:34:30.240Z,5.97
2023-04-18T09:37:09.190Z,5.33
2023-04-18T09:39:40.069Z,5.37
2023-04-18T09:42:10.387Z,6.40
2023-04-18T09:44:38.823Z,5.33
2023-04-18T09:47:08.349Z,6.20
2023-04-18T09:49:36.284Z,6.60
2023-04-18T09:52:08.674Z,6.23
2023-04-18T09:54:40.782Z,5.40
2023-04-18T09:57:13.028Z,6.13
2023-04-18T09:59:47.624Z,6.57
2023-04-18T10:02:21.260Z,6.63
2023-04-18T10:04:51.819Z,7.00
2023-04-18T10:07:20.033Z,7.53
2023-04-18T10:09:50.718Z,6.20
2023-04-18T10:12:19.245Z,6.07
2023-04-18T10:14:47.741Z,6.83
2023-04-18T10:17:16.162Z,6.80
2023-04-18T10:19:46.246Z,7.07
2023-04-18T10:22:14.419Z,6.30
2023-04-18T10:24:53.026Z,6.27
2023-04-18T10:27:58.870Z,5.50
2023-04-18T10:30:51.017Z,6.23
2023-04-18T10:33:30.881Z,6.90
2023-04-18T10:36:17.268Z,5.37
2023-04-18T10:38:49.786Z,4.83
2023-04-18T10:41:26.386Z,5.60
2023-04-18T10:44:24.175Z,5.80
2023-04-18T10:47:21.755Z,4.47
2023-04-18T10:49:58.428Z,5.10
2023-04-18T10:52:27.115Z,4.30
2023-04-18T10:55:03.067Z,4.67
2023-04-18T10:57:40.100Z,5.13
2023-04-18T11:00:12.649Z,4.60
2023-04-18T11:02:41.722Z,4.50
2023-04-18T11:05:10.904Z,4.27
2023-04-18T11:07:40.123Z,5.27
2023-04-18T11:10:10.002Z,5.30
2023-04-18T11:12:39.396Z,4.80
2023-04-18T11:15:14.576Z,5.00
2023-04-18T11:17:42.644Z,5.20
2023-04-18T11:20:12.905Z,4.87
2023-04-18T11:22:48.178Z,4.50
2023-04-18T11:25:16.761Z,5.27
2023-04-18T11:27:45.621Z,4.93
2023-04-18T11:30:16.629Z,5.37
2023-04-18T11:32:45.217Z,4.97
2023-04-18T11:35:15.063Z,4.20
2023-04-18T11:37:45.567Z,5.07
2023-04-18T11:40:14.790Z,5.67
2023-04-18T11:42:43.113Z,5.17
2023-04-18T11:45:12.749Z,5.30
2023-04-18T11:47:43.957Z,4.73
2023-04-18T11:50:14.207Z,5.80
2023-04-18T11:52:43.492Z,5.90
2023-04-18T11:55:17.640Z,4.77
2023-04-18T11:57:52.530Z,4.83
2023-04-18T12:00:22.436Z,5.03
2023-04-18T12:02:52.843Z,4.97
2023-04-18T12:05:29.231Z,4.33
2023-04-18T12:07:57.737Z,4.50
2023-04-18T12:10:29.616Z,4.83
2023-04-18T12:12:59.626Z,5.33
2023-04-18T12:15:29.191Z,5.10
2023-04-18T12:18:03.169Z,4.67
2023-04-18T12:20:38.380Z,5.17
2023-04-18T12:23:07.875Z,4.93
2023-04-18T12:25:36.542Z,4.47
2023-04-18T12:28:14.822Z,5.10
2023-04-18T12:30:43.721Z,4.80
2023-04-18T12:33:13.391Z,3.97
2023-04-18T12:35:41.458Z,4.27
2023-04-18T12:38:09.405Z,4.47
2023-04-18T12:40:40.782Z,3.83
2023-04-18T12:43:09.069Z,4.43
2023-04-18T12:45:37.461Z,5.07
2023-04-18T12:48:05.571Z,4.97
2023-04-18T12:50:35.763Z,4.43
2023-04-18T12:53:04.087Z,4.47
2023-04-18T12:55:32.206Z,4.43
2023-04-18T12:58:00.761Z,4.40
2023-04-18T13:00:31.429Z,4.47
2023-04-18T13:03:00.168Z,4.63
2023-04-18T13:05:33.526Z,4.67
2023-04-18T13:10:34.690Z,4.80
2023-04-18T13:13:02.619Z,4.03
2023-04-18T13:15:30.829Z,5.10
2023-04-18T13:18:04.358Z,4.00
2023-04-18T13:20:32.982Z,4.27
2023-04-18T13:23:01.017Z,4.23
2023-04-18T13:25:31.755Z,4.20
2023-04-18T13:28:01.071Z,4.57
2023-04-18T13:30:29.460Z,4.57
2023-04-18T13:32:57.557Z,4.33
2023-04-18T13:35:25.636Z,4.03
2023-04-18T13:37:53.667Z,4.90
2023-04-18T13:40:21.807Z,4.63
2023-04-18T13:42:51.511Z,5.27
2023-04-18T13:45:20.734Z,4.57
2023-04-18T13:47:48.784Z,5.03
2023-04-18T13:50:16.926Z,5.53
2023-04-18T13:52:45.070Z,6.30
2023-04-18T13:55:13.499Z,5.53
2023-04-18T13:57:41.511Z,5.17
2023-04-18T14:00:14.048Z,5.03
2023-04-18T14:02:42.471Z,5.00
2023-04-18T14:05:11.049Z,4.83
2023-04-18T14:07:39.351Z,5.73
2023-04-18T14:10:08.456Z,5.37
2023-04-18T14:12:36.541Z,6.20
2023-04-18T14:15:04.944Z,5.63
2023-04-18T14:20:09.312Z,5.73
2023-04-18T14:22:37.225Z,6.63
2023-04-18T14:25:05.715Z,4.77
2023-04-18T14:27:33.643Z,5.30
2023-04-18T14:30:01.532Z,5.47
2023-04-18T14:32:29.498Z,5.20
2023-04-18T14:34:59.470Z,5.50
2023-04-18T14:37:27.369Z,5.57
2023-04-18T14:39:55.353Z,5.33
2023-04-18T14:42:23.334Z,5.27
2023-04-18T14:44:51.400Z,5.57
2023-04-18T14:47:19.983Z,5.80
2023-04-18T14:49:47.824Z,6.23
2023-04-18T14:52:17.186Z,5.43
2023-04-18T14:54:45.146Z,5.77
2023-04-18T14:57:13.040Z,5.40
2023-04-18T14:59:40.978Z,6.37
2023-04-18T15:02:09.042Z,6.13
2023-04-18T15:04:37.148Z,5.57
2023-04-18T15:07:05.358Z,5.83
2023-04-18T15:09:38.346Z,5.67
2023-04-18T15:12:07.425Z,5.50
2023-04-18T15:14:35.690Z,5.07
2023-04-18T15:17:04.538Z,5.60
2023-04-18T15:19:32.533Z,5.10
2023-04-18T15:22:00.532Z,5.83
2023-04-18T15:24:28.425Z,6.03
2023-04-18T15:26:58.752Z,5.37
2023-04-18T15:29:27.028Z,5.70
2023-04-18T15:31:55.017Z,4.33
2023-04-18T15:34:22.962Z,4.50
2023-04-18T15:36:50.958Z,4.57
2023-04-18T15:39:22.034Z,5.00
2023-04-18T15:41:53.124Z,5.00
2023-04-18T15:44:22.641Z,4.77
2023-04-18T15:46:50.979Z,4.80
2023-04-18T15:49:18.918Z,4.37
2023-04-18T15:51:46.902Z,4.13
2023-04-18T15:54:15.326Z,4.37
2023-04-18T15:56:44.974Z,4.63
2023-04-18T15:59:13.719Z,4.70
2023-04-18T16:01:45.316Z,4.17
2023-04-18T16:04:14.360Z,4.17
2023-04-18T16:06:42.653Z,3.87
2023-04-18T16:09:10.770Z,4.47
2023-04-18T16:11:38.787Z,3.10
2023-04-18T16:14:06.885Z,3.87
2023-04-18T16:16:34.982Z,4.40
2023-04-18T16:19:05.506Z,4.90
2023-04-18T16:21:33.732Z,3.87
2023-04-18T16:24:02.058Z,3.83
2023-04-18T16:26:30.124Z,3.83
2023-04-18T16:28:58.219Z,3.20
2023-04-18T16:31:26.242Z,3.77
2023-04-18T16:33:54.312Z,3.77
2023-04-18T16:36:23.990Z,3.67
2023-04-18T16:38:52.008Z,3.40
2023-04-18T16:41:19.865Z,3.60
2023-04-18T16:43:48.040Z,3.87
2023-04-18T16:46:16.066Z,3.00
2023-04-18T16:48:45.338Z,3.73
2023-04-18T16:51:13.740Z,3.27
2023-04-18T16:53:43.106Z,2.60
2023-04-18T16:56:11.229Z,2.90
2023-04-18T16:58:39.091Z,2.90
2023-04-18T17:01:08.129Z,2.80
2023-04-18T17:03:36.837Z,2.50
2023-04-18T17:06:05.966Z,2.90
2023-04-18T17:08:34.227Z,2.63
2023-04-18T17:11:03.528Z,1.77
2023-04-18T17:13:31.709Z,2.33
2023-04-18T17:16:00.010Z,2.30
2023-04-18T17:18:29.528Z,2.80
2023-04-18T17:20:57.460Z,2.10
2023-04-18T17:23:25.515Z,2.07
2023-04-18T17:25:53.556Z,2.10
2023-04-18T17:28:23.677Z,3.80
2023-04-18T17:30:51.938Z,2.60
2023-04-18T17:33:20.072Z,2.30
2023-04-18T17:35:48.272Z,2.63
2023-04-18T17:38:16.837Z,2.10
2023-04-18T17:40:44.913Z,2.30
2023-04-18T17:43:12.878Z,1.93
2023-04-18T17:45:42.895Z,1.77
2023-04-18T17:48:10.927Z,2.20
2023-04-18T17:50:38.951Z,2.20
2023-04-18T17:53:07.072Z,2.30
2023-04-18T17:55:35.451Z,3.90
2023-04-18T17:58:03.502Z,3.43
2023-04-18T18:00:32.112Z,2.30
2023-04-18T18:03:02.537Z,2.50
2023-04-18T18:05:31.191Z,2.20
2023-04-18T18:08:01.238Z,2.07
2023-04-18T18:10:29.800Z,1.90
2023-04-18T18:12:57.744Z,2.10
2023-04-18T18:15:25.850Z,1.73
2023-04-18T18:17:55.012Z,2.20
2023-04-18T18:20:24.699Z,2.47
2023-04-18T18:22:54.016Z,2.37
2023-04-18T18:25:22.136Z,4.57
2023-04-18T18:27:51.440Z,2.07
2023-04-18T18:30:19.504Z,2.00
2023-04-18T18:32:47.456Z,1.90
2023-04-18T18:35:15.505Z,1.87
2023-04-18T18:37:44.808Z,2.03
2023-04-18T18:40:13.488Z,2.20
2023-04-18T18:42:42.621Z,1.93
2023-04-18T18:45:11.235Z,2.30
2023-04-18T18:47:40.225Z,2.40
2023-04-18T18:50:09.165Z,1.93
2023-04-18T18:52:37.237Z,2.20
2023-04-18T18:55:07.691Z,2.30
2023-04-18T18:57:35.555Z,2.67
2023-04-18T19:00:03.476Z,2.10
2023-04-18T19:02:31.584Z,2.30
2023-04-18T19:05:00.184Z,2.70
2023-04-18T19:07:29.939Z,2.87
2023-04-18T19:10:00.485Z,2.67
2023-04-18T19:12:30.129Z,3.40
2023-04-18T19:14:58.078Z,2.50
2023-04-18T19:17:25.987Z,3.63
2023-04-18T19:19:57.931Z,2.90
2023-04-18T19:22:25.991Z,2.73
2023-04-18T19:24:54.024Z,2.83
2023-04-18T19:27:22.080Z,2.57
2023-04-18T19:29:51.355Z,2.90
2023-04-18T19:32:19.403Z,2.70
2023-04-18T19:34:47.333Z,2.80
2023-04-18T19:37:15.357Z,3.50
2023-04-18T19:39:43.261Z,2.30
2023-04-18T19:42:11.301Z,2.53
2023-04-18T19:44:39.350Z,2.73
2023-04-18T19:47:08.829Z,2.40
2023-04-18T19:49:36.827Z,2.33
2023-04-18T19:52:04.775Z,2.47
2023-04-18T19:54:33.423Z,2.30
2023-04-18T19:57:01.428Z,2.30
2023-04-18T19:59:29.390Z,2.37
2023-04-18T20:02:00.189Z,2.37
2023-04-18T20:04:31.445Z,2.47
2023-04-18T20:06:59.573Z,2.43
2023-04-18T20:09:27.477Z,2.40
2023-04-18T20:11:55.558Z,1.90
2023-04-18T20:14:23.502Z,2.07
2023-04-18T20:16:51.532Z,2.50
2023-04-18T20:19:19.738Z,2.67
2023-04-18T20:21:49.054Z,2.47
2023-04-18T20:24:17.094Z,2.50
2023-04-18T20:26:45.144Z,2.57
2023-04-18T20:29:13.440Z,2.80
2023-04-18T20:31:42.736Z,2.90
2023-04-18T20:34:11.036Z,3.23
2023-04-18T20:36:41.564Z,2.70
2023-04-18T20:39:12.727Z,2.20
2023-04-18T20:41:46.671Z,2.47
2023-04-18T20:44:15.012Z,2.50
2023-04-18T20:46:43.324Z,2.80
2023-04-18T20:49:11.551Z,2.43
2023-04-18T20:51:39.647Z,3.27
2023-04-18T20:54:07.785Z,4.03
2023-04-18T20:56:38.681Z,2.43
2023-04-18T20:59:06.642Z,2.53
2023-04-18T21:01:36.838Z,2.50
2023-04-18T21:04:05.403Z,2.07
2023-04-18T21:06:33.497Z,2.67
2023-04-18T21:09:01.400Z,2.70
2023-04-18T21:11:29.314Z,3.13
2023-04-18T21:13:58.753Z,3.60
2023-04-18T21:16:26.994Z,3.40
2023-04-18T21:18:55.332Z,3.27
2023-04-18T21:21:23.328Z,3.57
2023-04-18T21:23:51.352Z,2.83
2023-04-18T21:26:19.430Z,2.57
2023-04-18T21:28:59.682Z,2.17
2023-04-18T21:31:30.713Z,2.67
2023-04-18T21:34:00.374Z,2.80
2023-04-18T21:36:29.697Z,2.63
2023-04-18T21:38:59.149Z,2.60
2023-04-18T21:41:27.327Z,3.53
2023-04-18T21:43:55.313Z,4.10
2023-04-18T21:46:24.929Z,3.13
2023-04-18T21:48:53.132Z,2.73
2023-04-18T21:51:21.195Z,3.40
2023-04-18T21:53:49.298Z,3.03
2023-04-18T21:56:18.234Z,3.07
2023-04-18T21:58:46.332Z,3.23
2023-04-18T22:01:14.332Z,3.37
2023-04-18T22:03:43.923Z,2.87
2023-04-18T22:06:12.257Z,3.07
2023-04-18T22:08:42.072Z,3.67
2023-04-18T22:11:11.609Z,2.83
2023-04-18T22:13:39.640Z,2.57
2023-04-18T22:16:08.420Z,3.17
2023-04-18T22:18:37.991Z,3.10
2023-04-18T22:21:09.541Z,3.30
2023-04-18T22:23:37.528Z,2.80
2023-04-18T22:26:05.635Z,3.10
2023-04-18T22:28:33.991Z,3.30
2023-04-18T22:31:02.545Z,3.90
2023-04-18T22:33:30.950Z,3.57
2023-04-18T22:35:58.973Z,3.43
2023-04-18T22:38:28.317Z,3.20
2023-04-18T22:40:56.368Z,3.63
2023-04-18T22:43:24.980Z,3.23
2023-04-18T22:45:52.982Z,3.50
2023-04-18T22:48:21.165Z,2.93
2023-04-18T22:50:49.959Z,3.10
2023-04-18T22:53:18.430Z,3.10
2023-04-18T22:55:47.824Z,2.77
2023-04-18T22:58:15.817Z,4.13
2023-04-18T23:00:43.794Z,3.17
2023-04-18T23:03:12.189Z,2.67
2023-04-18T23:05:41.057Z,3.90
2023-04-18T23:08:09.138Z,2.83
2023-04-18T23:10:37.124Z,2.53
2023-04-18T23:13:06.527Z,2.93
2023-04-18T23:15:34.554Z,2.57
2023-04-18T23:18:02.634Z,2.60
2023-04-18T23:20:30.770Z,2.87
2023-04-18T23:22:58.720Z,2.77
2023-04-18T23:25:26.729Z,2.63
2023-04-18T23:27:54.709Z,2.70
2023-04-18T23:30:24.144Z,2.40
2023-04-18T23:32:52.216Z,2.70
2023-04-18T23:35:20.379Z,2.33
2023-04-18T23:37:48.403Z,2.70
2023-04-18T23:40:16.399Z,2.83
2023-04-18T23:42:44.481Z,2.23
2023-04-18T23:45:13.159Z,2.67
2023-04-18T23:47:42.624Z,2.40
2023-04-18T23:50:11.454Z,2.47
2023-04-18T23:52:39.494Z,1.80
2023-04-18T23:55:08.236Z,1.90
2023-04-18T23:57:36.241Z,2.30
